Time;durP1;ratioP1;P1;durP2;ratioP2;P2;SDS_P1;SDS_P2;PMS_P1;PMS_P2;Temp;Humidity;BMP_temperature;BMP_pressure;BME280_temperature;BME280_humidity;BME280_pressure;Samples;Min_cycle;Max_cycle;Signal;HPM_P1;HPM_P2
2022/08/03 00:00:13;;;;;;;8.77;2.50;;;;;;;23.52;44.21;98023.41;8450994;28;20226;-75
2022/08/03 00:04:16;;;;;;;3.63;2.63;;;;;;;23.45;44.22;98027.63;8451405;28;20235;-74
2022/08/03 00:08:21;;;;;;;3.10;2.50;;;;;;;23.42;44.02;98023.50;8451623;28;20230;-75
2022/08/03 00:12:23;;;;;;;3.90;2.57;;;;;;;23.39;44.09;98026.41;8451388;28;20293;-75
2022/08/03 00:16:26;;;;;;;3.50;2.67;;;;;;;23.29;44.03;98029.09;8451362;28;20222;-75
2022/08/03 00:20:29;;;;;;;3.03;2.40;;;;;;;23.19;44.67;98028.34;8451167;28;20235;-75
2022/08/03 00:24:35;;;;;;;4.20;3.03;;;;;;;23.23;46.51;98027.06;8451256;28;20229;-75
2022/08/03 00:28:37;;;;;;;5.73;2.33;;;;;;;23.15;45.07;98032.22;8451059;28;20445;-75
2022/08/03 00:32:40;;;;;;;2.97;2.67;;;;;;;23.13;44.95;98032.41;8445274;28;20229;-76
2022/08/03 00:36:46;;;;;;;3.97;2.77;;;;;;;23.09;45.06;98033.63;8408847;28;20246;-76
2022/08/03 00:40:51;;;;;;;3.13;2.60;;;;;;;23.08;45.09;98028.53;8383325;28;20234;-75
2022/08/03 00:44:53;;;;;;;5.10;2.90;;;;;;;23.04;45.28;98038.53;8394549;28;20238;-76
2022/08/03 00:48:56;;;;;;;6.77;2.77;;;;;;;22.93;45.07;98023.66;8416744;28;20533;-75
2022/08/03 00:53:00;;;;;;;6.77;2.77;;;;;;;22.92;45.13;98029.09;8416338;28;20578;-75
2022/08/03 00:57:04;;;;;;;3.97;2.90;;;;;;;22.85;45.08;98031.50;8416437;28;20234;-74
2022/08/03 01:01:07;;;;;;;5.50;2.80;;;;;;;22.87;45.12;98026.91;8414015;28;20238;-74
2022/08/03 01:05:10;;;;;;;3.87;2.60;;;;;;;22.84;45.13;98029.81;8416063;28;20231;-74
2022/08/03 01:09:20;;;;;;;3.43;3.00;;;;;;;22.82;45.21;98032.59;8416125;28;20262;-75
2022/08/03 01:13:29;;;;;;;3.30;2.90;;;;;;;22.72;45.35;98023.06;8415960;28;20402;-74
2022/08/03 01:17:56;;;;;;;5.47;3.27;;;;;;;22.69;45.62;98026.78;8415256;28;20241;-74
2022/08/03 01:22:10;;;;;;;7.00;2.97;;;;;;;22.72;45.73;98033.63;8415506;28;20242;-74
2022/08/03 01:26:48;;;;;;;4.90;3.10;;;;;;;22.62;45.88;98031.00;8415667;28;20233;-75
2022/08/03 01:30:53;;;;;;;3.57;3.00;;;;;;;22.58;46.13;98033.09;8340599;28;20261;-75
2022/08/03 01:35:00;;;;;;;4.10;2.73;;;;;;;22.59;45.98;98026.81;8415222;28;20410;-74
2022/08/03 01:39:08;;;;;;;4.10;2.80;;;;;;;22.51;46.13;98028.53;8415174;28;20235;-74
2022/08/03 01:43:16;;;;;;;4.90;2.87;;;;;;;22.47;46.46;98029.78;8414919;28;20301;-74
2022/08/03 01:47:41;;;;;;;3.60;3.00;;;;;;;22.47;46.45;98027.97;8381771;28;20253;-75
2022/08/03 01:51:45;;;;;;;3.60;2.70;;;;;;;22.39;46.12;98020.78;8380820;28;20241;-74
2022/08/03 01:56:07;;;;;;;3.30;3.00;;;;;;;22.27;46.74;98015.78;8381322;28;20575;-74
2022/08/03 02:00:11;;;;;;;4.73;3.03;;;;;;;22.27;46.34;98011.31;8381380;28;20232;-74
2022/08/03 02:04:17;;;;;;;4.90;3.40;;;;;;;22.30;46.65;98010.22;8381396;28;20424;-74
2022/08/03 02:08:20;;;;;;;5.40;2.90;;;;;;;22.21;47.05;98002.13;8381362;28;20231;-75
2022/08/03 02:12:26;;;;;;;4.07;3.07;;;;;;;22.21;47.25;98003.94;8381083;28;20256;-75
2022/08/03 02:16:31;;;;;;;5.43;3.30;;;;;;;22.15;47.58;98007.16;8381068;28;20231;-75
2022/08/03 02:20:37;;;;;;;3.40;3.10;;;;;;;22.10;47.66;98002.28;8380912;28;20433;-75
2022/08/03 02:24:40;;;;;;;3.63;3.30;;;;;;;22.09;47.75;98003.28;8380902;28;20245;-75
2022/08/03 02:28:49;;;;;;;5.00;3.40;;;;;;;22.14;47.75;98013.38;8380839;28;20237;-74
2022/08/03 02:32:55;;;;;;;3.67;3.30;;;;;;;22.08;47.63;98009.50;8380176;28;20319;-74
2022/08/03 02:37:01;;;;;;;3.73;3.20;;;;;;;21.96;47.67;98003.56;8380452;28;20242;-74
2022/08/03 02:41:08;;;;;;;4.13;3.50;;;;;;;21.91;47.60;98016.31;8380519;28;20233;-75
2022/08/03 02:45:12;;;;;;;6.60;2.90;;;;;;;21.91;47.74;98010.22;8393486;28;20230;-75
2022/08/03 02:49:17;;;;;;;4.40;3.30;;;;;;;21.79;47.69;98005.06;8413511;28;20413;-75
2022/08/03 02:53:42;;;;;;;4.97;3.80;;;;;;;21.81;47.76;98010.22;8413290;28;20226;-75
2022/08/03 02:57:47;;;;;;;4.97;3.27;;;;;;;21.77;47.99;98000.91;8413542;28;20548;-75
2022/08/03 03:01:50;;;;;;;7.23;3.37;;;;;;;21.76;47.49;98005.38;8448808;28;20535;-74
2022/08/03 03:05:53;;;;;;;4.83;3.10;;;;;;;21.61;47.65;98004.94;8453572;28;20236;-74
2022/08/03 03:10:01;;;;;;;4.60;3.37;;;;;;;21.61;47.65;97993.53;8453562;28;20239;-75
2022/08/03 03:14:05;;;;;;;6.83;3.50;;;;;;;21.60;47.42;97992.72;8453220;28;20242;-75
2022/08/03 03:18:11;;;;;;;4.37;3.07;;;;;;;21.59;47.69;97996.31;8453242;28;20243;-75
2022/08/03 03:22:14;;;;;;;5.13;3.40;;;;;;;21.57;47.58;97997.41;8453044;28;20400;-74
2022/08/03 03:26:19;;;;;;;6.43;3.40;;;;;;;21.57;47.55;97997.41;8452897;28;20361;-74
2022/08/03 03:30:22;;;;;;;6.73;3.57;;;;;;;21.52;47.67;98002.28;8452902;28;20226;-75
2022/08/03 03:34:25;;;;;;;4.00;3.27;;;;;;;21.53;47.75;98003.94;8452710;28;20276;-74
2022/08/03 03:38:30;;;;;;;3.53;3.23;;;;;;;21.52;47.90;98011.00;8452537;28;20315;-74
2022/08/03 03:42:34;;;;;;;5.00;3.40;;;;;;;21.45;47.93;98001.97;8452501;28;20340;-74
2022/08/03 03:46:37;;;;;;;5.20;3.40;;;;;;;21.44;47.98;98009.06;8452234;28;20238;-75
2022/08/03 03:50:40;;;;;;;5.17;3.03;;;;;;;21.39;48.29;98005.94;8452101;28;20225;-75
2022/08/03 03:54:44;;;;;;;5.90;3.47;;;;;;;21.39;48.46;98008.59;8451808;28;20335;-75
2022/08/03 03:58:49;;;;;;;4.50;3.40;;;;;;;21.38;48.27;98013.97;8426232;28;20240;-74
2022/08/03 04:02:51;;;;;;;4.20;3.80;;;;;;;21.31;48.41;98008.44;8418309;28;20237;-75
2022/08/03 04:11:18;;;;;;;6.10;3.90;;;;;;;21.42;48.31;98007.50;8384857;28;20234;-74
2022/08/03 04:15:24;;;;;;;5.20;3.63;;;;;;;21.31;48.61;98010.25;8384108;28;20573;-74
2022/08/03 04:19:29;;;;;;;4.63;3.00;;;;;;;21.40;48.19;98012.91;8407852;28;20324;-74
2022/08/03 04:23:34;;;;;;;6.53;2.90;;;;;;;22.33;51.13;98018.69;8417772;28;20231;-74
2022/08/03 04:27:38;;;;;;;6.43;2.97;;;;;;;22.77;48.99;98019.00;8417669;28;20229;-75
2022/08/03 04:31:45;;;;;;;4.73;2.67;;;;;;;23.01;48.28;98015.03;8417428;28;20521;-74
2022/08/03 04:35:48;;;;;;;3.57;2.87;;;;;;;23.16;47.17;98021.50;8425124;28;20237;-74
2022/08/03 04:40:07;;;;;;;3.77;2.80;;;;;;;23.34;46.79;98010.16;8417311;28;20435;-74
2022/08/03 04:44:11;;;;;;;5.63;2.67;;;;;;;23.42;46.45;98021.66;8416873;28;20244;-74
2022/08/03 04:48:15;;;;;;;4.27;2.90;;;;;;;23.50;45.66;98018.28;8416786;28;20231;-74
2022/08/03 04:52:19;;;;;;;4.67;2.87;;;;;;;23.61;45.66;98030.47;8416639;28;20234;-74
2022/08/03 04:56:21;;;;;;;4.20;3.13;;;;;;;23.70;45.81;98026.91;8416719;28;20227;-74
2022/08/03 05:00:25;;;;;;;6.40;3.23;;;;;;;23.78;45.75;98031.47;8416731;28;20231;-74
2022/08/03 05:04:29;;;;;;;6.03;3.40;;;;;;;23.84;45.74;98033.53;8416561;28;20235;-74
2022/08/03 05:08:32;;;;;;;5.53;3.20;;;;;;;23.90;45.59;98032.09;8416228;28;20443;-74
2022/08/03 05:12:35;;;;;;;6.80;3.33;;;;;;;23.95;45.51;98030.66;8416056;28;20238;-75
2022/08/03 05:16:38;;;;;;;6.27;3.27;;;;;;;23.98;45.42;98037.47;8416126;28;20552;-75
2022/08/03 05:20:42;;;;;;;6.20;3.20;;;;;;;24.09;45.42;98039.06;8416034;28;20230;-75
2022/08/03 05:24:45;;;;;;;5.03;3.00;;;;;;;24.14;45.40;98055.28;8414758;28;20232;-75
2022/08/03 05:28:48;;;;;;;4.73;3.50;;;;;;;24.15;44.91;98049.84;8423424;28;20234;-74
2022/08/03 05:32:53;;;;;;;6.37;3.90;;;;;;;23.81;45.29;98050.50;8415141;28;20237;-74
2022/08/03 05:36:57;;;;;;;5.37;3.33;;;;;;;24.13;45.07;98056.28;8415193;28;20227;-74
2022/08/03 05:41:00;;;;;;;7.23;4.80;;;;;;;23.78;45.41;98049.97;8415018;28;20238;-74
2022/08/03 05:45:24;;;;;;;6.83;4.50;;;;;;;22.76;47.82;98054.28;8399512;28;20249;-74
2022/08/03 05:49:30;;;;;;;7.80;4.90;;;;;;;22.99;47.61;98046.03;8415077;28;20252;-74
2022/08/03 05:53:35;;;;;;;9.37;4.37;;;;;;;23.15;47.19;98056.84;8414563;28;20230;-74
2022/08/03 05:57:38;;;;;;;5.67;4.60;;;;;;;23.05;48.04;98055.22;8414675;28;20222;-74
2022/08/03 06:01:41;;;;;;;6.97;4.57;;;;;;;23.17;46.89;98051.41;8414779;28;20229;-74
2022/08/03 06:05:44;;;;;;;4.93;4.23;;;;;;;23.14;46.86;98046.41;8407602;28;20580;-74
2022/08/03 06:10:04;;;;;;;9.70;4.27;;;;;;;23.07;47.26;98050.63;8412679;28;20312;-74
2022/08/03 06:14:27;;;;;;;4.80;4.13;;;;;;;23.36;46.77;98053.97;8414359;28;20238;-73
2022/08/03 06:18:30;;;;;;;4.73;4.20;;;;;;;23.60;46.96;98056.03;8414397;28;20226;-74
2022/08/03 06:22:33;;;;;;;9.13;4.80;;;;;;;23.31;47.83;98058.03;8413975;28;20238;-74
2022/08/03 06:26:37;;;;;;;7.57;4.80;;;;;;;23.74;47.23;98060.00;8414069;28;20227;-72
2022/08/03 06:30:40;;;;;;;7.00;4.57;;;;;;;23.59;47.04;98056.22;8413966;28;20223;-74
2022/08/03 06:34:43;;;;;;;10.43;5.00;;;;;;;23.80;47.14;98061.25;8413704;28;20244;-75
2022/08/03 06:38:45;;;;;;;7.53;5.00;;;;;;;24.05;46.42;98054.41;8413317;28;20424;-73
2022/08/03 06:42:49;;;;;;;10.30;4.63;;;;;;;23.93;46.38;98053.78;8437059;28;20243;-73
2022/08/03 06:46:53;;;;;;;7.50;4.60;;;;;;;24.32;45.27;98053.47;8440610;28;20242;-73
2022/08/03 06:50:57;;;;;;;10.33;4.90;;;;;;;24.31;45.79;98050.97;8446968;28;20234;-73
2022/08/03 06:55:00;;;;;;;11.90;5.23;;;;;;;24.33;45.21;98052.50;8435063;28;20238;-73
2022/08/03 06:59:04;;;;;;;13.30;4.37;;;;;;;24.56;44.91;98059.94;8413213;28;20530;-74
2022/08/03 07:03:06;;;;;;;7.47;4.63;;;;;;;24.58;45.16;98053.53;8412752;28;20269;-74
2022/08/03 07:07:09;;;;;;;9.93;4.80;;;;;;;24.88;44.44;98055.84;8420801;28;20224;-74
2022/08/03 07:11:12;;;;;;;12.53;4.63;;;;;;;25.01;45.09;98052.78;8412859;28;20324;-73
2022/08/03 07:15:17;;;;;;;10.80;4.83;;;;;;;25.57;43.57;98043.47;8412926;28;20266;-74
2022/08/03 07:19:22;;;;;;;9.33;4.07;;;;;;;25.95;42.83;98043.91;8413103;28;20238;-74
2022/08/03 07:23:25;;;;;;;9.73;4.47;;;;;;;25.98;42.74;98048.88;8412784;28;20232;-74
2022/08/03 07:27:29;;;;;;;12.03;5.00;;;;;;;26.09;41.53;98050.38;8412636;28;20530;-74
2022/08/03 07:31:33;;;;;;;10.07;4.03;;;;;;;26.11;41.35;98048.38;8412780;28;20418;-75
2022/08/03 07:35:36;;;;;;;7.93;4.50;;;;;;;26.54;41.13;98057.03;8412667;28;20253;-74
2022/08/03 07:39:38;;;;;;;6.73;4.20;;;;;;;26.79;40.75;98049.03;8412495;28;20536;-74
2022/08/03 07:43:41;;;;;;;10.10;4.27;;;;;;;26.98;40.37;98061.09;8413176;28;20227;-74
2022/08/03 07:47:46;;;;;;;5.87;3.90;;;;;;;27.40;39.36;98055.53;8446400;28;20427;-74
2022/08/03 07:56:12;;;;;;;9.47;3.97;;;;;;;27.69;38.77;98054.88;8451066;28;20243;-74
2022/08/03 08:00:17;;;;;;;9.87;4.70;;;;;;;27.74;38.06;98043.72;8452019;28;20226;-74
2022/08/03 08:04:22;;;;;;;9.67;4.33;;;;;;;28.19;38.04;98044.75;8451517;28;20233;-74
2022/08/03 08:08:25;;;;;;;6.87;4.10;;;;;;;28.49;36.55;98047.50;8451528;28;20227;-74
2022/08/03 08:12:28;;;;;;;7.03;3.77;;;;;;;28.79;36.63;98035.09;8451387;28;20407;-74
2022/08/03 08:16:30;;;;;;;7.13;4.03;;;;;;;29.02;35.72;98040.34;8451594;28;20227;-74
2022/08/03 08:20:36;;;;;;;8.97;3.70;;;;;;;29.35;35.68;98039.97;8451252;28;20233;-73
2022/08/03 08:24:39;;;;;;;9.93;3.47;;;;;;;29.61;35.32;98034.13;8450982;28;20221;-74
2022/08/03 08:28:44;;;;;;;7.77;4.20;;;;;;;29.55;35.78;98034.88;8451226;28;20244;-73
2022/08/03 08:32:48;;;;;;;7.17;4.47;;;;;;;29.80;36.06;98030.03;8416873;28;20386;-73
2022/08/03 08:36:52;;;;;;;11.07;3.73;;;;;;;30.08;34.36;98028.47;8417151;28;20234;-73
2022/08/03 08:40:55;;;;;;;5.67;3.40;;;;;;;30.41;33.28;98034.13;8417195;28;20555;-72
2022/08/03 08:44:58;;;;;;;8.37;3.10;;;;;;;30.50;33.08;98030.31;8416736;28;20247;-73
2022/08/03 08:49:01;;;;;;;7.17;3.60;;;;;;;30.77;32.94;98038.50;8417254;28;20234;-72
2022/08/03 08:53:12;;;;;;;7.50;3.60;;;;;;;30.90;31.95;98033.28;8416878;28;20549;-73
2022/08/03 08:57:21;;;;;;;6.10;2.97;;;;;;;31.09;31.66;98031.72;8416565;28;20224;-73
2022/08/03 09:01:44;;;;;;;7.63;2.97;;;;;;;31.39;31.29;98028.75;8416306;28;20231;-74
2022/08/03 09:05:48;;;;;;;7.23;3.33;;;;;;;31.36;30.74;98019.28;8415716;28;20258;-73
2022/08/03 09:09:59;;;;;;;3.83;2.80;;;;;;;31.92;30.42;98020.91;8416144;28;20243;-74
2022/08/03 09:14:15;;;;;;;8.23;2.90;;;;;;;31.15;29.34;98020.25;8416062;28;20231;-74
2022/08/03 09:18:38;;;;;;;6.73;2.53;;;;;;;31.84;29.21;98017.63;8412652;28;20537;-76
2022/08/03 09:22:52;;;;;;;5.60;2.30;;;;;;;32.07;27.54;98017.25;8384501;28;20231;-76
2022/08/03 09:26:56;;;;;;;4.60;2.20;;;;;;;32.32;27.21;98012.13;8414953;28;20232;-76
2022/08/03 09:30:59;;;;;;;8.90;1.90;;;;;;;32.56;25.98;98012.50;8384734;28;20247;-76
2022/08/03 09:35:05;;;;;;;2.37;1.70;;;;;;;32.90;25.51;98004.22;8382129;28;20447;-75
2022/08/03 09:39:12;;;;;;;2.60;2.13;;;;;;;33.00;26.13;98003.78;8384811;28;20237;-76
2022/08/03 09:43:17;;;;;;;3.97;1.90;;;;;;;33.11;25.37;98016.59;8443694;28;20523;-76
2022/08/03 09:47:28;;;;;;;3.30;1.83;;;;;;;33.25;25.32;98011.16;8414414;28;20422;-76
2022/08/03 09:51:30;;;;;;;3.97;1.97;;;;;;;32.99;25.49;98007.50;8414838;28;20235;-77
2022/08/03 09:55:55;;;;;;;3.77;2.00;;;;;;;33.60;25.78;98002.72;8413999;28;20239;-76
2022/08/03 10:00:20;;;;;;;6.47;1.80;;;;;;;33.51;24.88;98002.19;8414446;28;20536;-76
2022/08/03 10:04:23;;;;;;;3.63;1.80;;;;;;;33.62;23.87;98001.47;8414522;28;20401;-77
2022/08/03 10:08:26;;;;;;;9.87;1.90;;;;;;;33.10;24.55;97996.13;8414525;28;20228;-77
2022/08/03 10:12:29;;;;;;;2.67;1.93;;;;;;;33.25;23.68;97995.06;8413463;28;20292;-76
2022/08/03 10:16:36;;;;;;;5.72;1.75;;;;;;;33.62;22.99;97996.09;8414056;28;20237;-76
2022/08/03 10:20:43;;;;;;;4.73;1.60;;;;;;;33.50;22.89;97995.16;8414118;28;20319;-76
2022/08/03 10:24:50;;;;;;;4.13;1.60;;;;;;;34.07;23.55;97989.84;8414019;28;20407;-76
2022/08/03 10:28:54;;;;;;;3.63;1.60;;;;;;;34.36;23.09;97984.88;8446720;28;20232;-76
2022/08/03 10:33:03;;;;;;;3.57;1.87;;;;;;;34.62;23.53;97981.94;8447134;28;20237;-76
2022/08/03 10:37:17;;;;;;;3.17;1.90;;;;;;;34.32;22.31;97984.50;8447224;28;20261;-76
2022/08/03 10:41:21;;;;;;;2.60;1.70;;;;;;;33.24;23.25;97972.78;8446892;28;20252;-78
2022/08/03 10:45:27;;;;;;;2.83;1.77;;;;;;;34.47;22.83;97971.53;8446848;28;20237;-78
2022/08/03 10:49:31;;;;;;;14.50;1.70;;;;;;;34.06;22.49;97969.38;8446972;28;20556;-76
2022/08/03 10:53:39;;;;;;;3.45;1.70;;;;;;;34.57;22.53;97965.66;8446850;28;20399;-76
2022/08/03 10:57:51;;;;;;;3.63;1.97;;;;;;;34.98;22.28;97966.09;8446808;28;20389;-76
2022/08/03 11:02:00;;;;;;;2.67;1.80;;;;;;;34.28;21.83;97954.56;8412551;28;20572;-73
2022/08/03 11:06:17;;;;;;;2.58;1.48;;;;;;;34.65;21.51;97949.25;8412994;28;20235;-74
2022/08/03 11:10:30;;;;;;;1.98;1.73;;;;;;;34.94;21.01;97940.66;8412376;28;20237;-74
2022/08/03 11:14:46;;;;;;;3.38;1.60;;;;;;;34.60;20.97;97945.56;8412827;28;20262;-74
2022/08/03 11:18:56;;;;;;;3.05;1.77;;;;;;;34.90;22.02;97931.41;8412557;28;20240;-74
2022/08/03 11:23:01;;;;;;;2.28;1.95;;;;;;;35.00;21.77;97937.09;8415187;28;20292;-74
2022/08/03 11:27:17;;;;;;;3.33;1.80;;;;;;;34.93;21.45;97939.03;8419313;28;20299;-73
2022/08/03 11:31:56;;;;;;;2.53;1.67;;;;;;;34.92;21.58;97923.91;8419393;28;20227;-73
2022/08/03 11:36:01;;;;;;;11.70;2.10;;;;;;;35.33;21.14;97928.59;8452190;28;20470;-74
2022/08/03 11:40:06;;;;;;;4.75;1.90;;;;;;;35.38;20.57;97922.53;8452316;28;20230;-73
2022/08/03 11:44:09;;;;;;;3.20;1.60;;;;;;;35.58;20.81;97924.91;8451856;28;20245;-73
2022/08/03 11:48:16;;;;;;;3.08;1.67;;;;;;;35.11;20.79;97919.34;8452167;28;20517;-74
2022/08/03 11:52:19;;;;;;;2.75;1.60;;;;;;;35.76;20.28;97916.00;8451630;28;20226;-74
2022/08/03 11:56:44;;;;;;;6.85;1.88;;;;;;;35.41;20.36;97916.66;8451868;28;20275;-74
2022/08/03 12:00:47;;;;;;;4.70;1.80;;;;;;;36.06;19.93;97917.75;8451931;28;20229;-74
2022/08/03 12:04:51;;;;;;;3.75;1.70;;;;;;;36.35;19.39;97906.06;8443391;28;20230;-73
2022/08/03 12:08:53;;;;;;;3.85;1.58;;;;;;;35.84;20.48;97904.88;8440452;28;20525;-73
2022/08/03 12:13:00;;;;;;;2.30;1.45;;;;;;;36.27;19.95;97895.66;8412051;28;20286;-73
2022/08/03 12:17:03;;;;;;;4.43;1.80;;;;;;;36.19;20.29;97896.84;8384605;28;20534;-73
2022/08/03 12:21:07;;;;;;;4.93;1.60;;;;;;;36.34;20.09;97899.03;8384695;28;20230;-73
2022/08/03 12:25:21;;;;;;;6.78;1.52;;;;;;;36.14;19.91;97901.25;8412525;28;20426;-74
2022/08/03 12:29:42;;;;;;;3.85;1.90;;;;;;;35.89;19.32;97891.53;8417292;28;20236;-75
2022/08/03 12:34:02;;;;;;;3.50;1.63;;;;;;;35.87;20.35;97895.50;8416279;28;20292;-73
2022/08/03 12:38:06;;;;;;;5.35;2.00;;;;;;;35.65;19.65;97892.50;8416972;28;20301;-73
2022/08/03 12:42:09;;;;;;;2.15;1.52;;;;;;;35.48;19.94;97892.34;8417157;28;20399;-74
2022/08/03 12:46:15;;;;;;;3.67;1.50;;;;;;;35.48;19.28;97890.47;8416689;28;20226;-74
2022/08/03 12:50:24;;;;;;;2.22;1.65;;;;;;;35.37;19.31;97886.69;8416944;28;20227;-74
2022/08/03 12:54:30;;;;;;;3.10;1.50;;;;;;;35.55;19.42;97880.44;8416728;28;20245;-76
2022/08/03 12:58:35;;;;;;;2.30;1.52;;;;;;;36.09;19.34;97868.78;8416533;28;20413;-75
2022/08/03 13:02:39;;;;;;;3.40;1.48;;;;;;;36.35;19.20;97872.91;8398933;28;20233;-74
2022/08/03 13:06:57;;;;;;;3.42;1.50;;;;;;;36.57;19.11;97859.59;8422389;28;20562;-73
2022/08/03 13:11:22;;;;;;;1.73;1.40;;;;;;;36.76;18.18;97855.69;8426912;28;20231;-74
2022/08/03 13:15:45;;;;;;;2.28;1.20;;;;;;;36.67;18.03;97849.06;8397460;28;20231;-74
2022/08/03 13:19:52;;;;;;;3.05;1.50;;;;;;;36.42;18.72;97854.72;8396488;28;20278;-73
2022/08/03 13:23:54;;;;;;;5.63;1.60;;;;;;;36.51;18.16;97860.56;8410436;28;20226;-73
2022/08/03 13:27:57;;;;;;;2.92;1.52;;;;;;;36.03;18.36;97853.56;8415572;28;20329;-73
2022/08/03 13:32:07;;;;;;;1.85;1.30;;;;;;;36.33;19.44;97848.88;8409262;28;20293;-73
2022/08/03 13:36:11;;;;;;;3.35;1.48;;;;;;;36.40;19.25;97851.44;8415085;28;20309;-74
2022/08/03 13:40:14;;;;;;;2.85;1.60;;;;;;;36.62;18.94;97842.72;8415252;28;20230;-74
2022/08/03 13:44:17;;;;;;;2.05;1.38;;;;;;;36.70;17.88;97836.97;8409138;28;20534;-75
2022/08/03 13:48:31;;;;;;;4.07;1.52;;;;;;;36.66;17.83;97841.22;8400274;28;20241;-73
2022/08/03 13:52:40;;;;;;;4.65;1.50;;;;;;;36.42;17.20;97838.53;8390040;28;20232;-73
2022/08/03 13:56:48;;;;;;;3.38;1.20;;;;;;;36.29;16.42;97834.25;8414555;28;20234;-74
2022/08/03 14:00:51;;;;;;;1.02;1.00;;;;;;;36.32;16.27;97825.66;8413967;28;20237;-73
2022/08/03 14:04:54;;;;;;;2.03;1.00;;;;;;;36.56;17.41;97828.31;8414357;28;20241;-73
2022/08/03 14:08:59;;;;;;;1.40;1.00;;;;;;;36.46;16.34;97820.00;8414048;28;20521;-74
2022/08/03 14:13:02;;;;;;;2.95;1.05;;;;;;;35.89;16.90;97818.78;8402239;28;20233;-74
2022/08/03 14:17:05;;;;;;;2.80;1.30;;;;;;;35.62;17.10;97819.22;8380850;28;20236;-73
2022/08/03 14:21:09;;;;;;;1.10;0.98;;;;;;;35.94;16.93;97810.81;8380817;28;20227;-74
2022/08/03 14:25:13;;;;;;;1.42;0.95;;;;;;;35.84;16.75;97821.34;8380862;28;20234;-74
2022/08/03 14:29:18;;;;;;;3.10;1.10;;;;;;;35.62;17.63;97819.22;8380453;28;20234;-74
2022/08/03 14:33:22;;;;;;;3.42;1.00;;;;;;;35.79;17.71;97813.97;8380454;28;20238;-74
2022/08/03 14:37:24;;;;;;;2.88;0.90;;;;;;;35.76;16.75;97800.16;8383101;28;20281;-74
2022/08/03 14:41:29;;;;;;;2.53;1.10;;;;;;;35.54;17.20;97797.19;8380388;28;20240;-74
2022/08/03 14:45:33;;;;;;;3.63;1.20;;;;;;;35.29;17.42;97802.78;8403135;28;20234;-75
2022/08/03 14:49:35;;;;;;;1.73;0.90;;;;;;;35.51;17.63;97795.78;8413640;28;20269;-73
2022/08/03 14:53:58;;;;;;;3.38;1.00;;;;;;;35.26;17.44;97792.47;8393079;28;20219;-73
2022/08/03 14:58:04;;;;;;;1.38;1.05;;;;;;;35.28;17.94;97785.81;8390169;28;20541;-73
2022/08/03 15:02:21;;;;;;;3.88;1.10;;;;;;;35.47;18.04;97774.94;8413364;28;20231;-74
2022/08/03 15:06:25;;;;;;;1.58;1.00;;;;;;;35.44;17.20;97768.97;8396801;28;20242;-73
2022/08/03 15:10:28;;;;;;;1.63;1.27;;;;;;;35.36;17.80;97772.00;8403151;28;20230;-74
2022/08/03 15:14:47;;;;;;;4.43;1.20;;;;;;;35.41;17.96;97765.91;8388188;28;20226;-74
2022/08/03 15:18:50;;;;;;;1.48;0.90;;;;;;;35.33;18.31;97772.47;8394986;28;20226;-73
2022/08/03 15:22:53;;;;;;;0.80;0.80;;;;;;;35.30;18.03;97766.72;8386087;28;20242;-74
2022/08/03 15:26:55;;;;;;;1.83;0.90;;;;;;;35.32;18.31;97759.22;8379496;28;20238;-74
2022/08/03 15:31:00;;;;;;;1.85;0.95;;;;;;;35.18;17.77;97764.84;8379475;28;20238;-73
2022/08/03 15:35:02;;;;;;;1.83;1.10;;;;;;;35.17;18.05;97762.38;8407708;28;20421;-73
2022/08/03 15:39:06;;;;;;;1.92;1.08;;;;;;;34.79;18.03;97763.56;8403769;28;20521;-73
2022/08/03 15:43:09;;;;;;;1.10;1.00;;;;;;;34.74;18.21;97755.34;8412442;28;20222;-74
2022/08/03 15:47:13;;;;;;;1.92;1.15;;;;;;;34.84;18.82;97748.38;8399652;28;20254;-74
2022/08/03 15:51:16;;;;;;;2.30;0.95;;;;;;;34.71;18.72;97762.00;8393788;28;20241;-75
2022/08/03 15:55:19;;;;;;;2.70;1.25;;;;;;;34.67;19.20;97758.09;8406849;28;20373;-75
2022/08/03 15:59:22;;;;;;;5.22;1.33;;;;;;;34.51;18.93;97753.34;8412418;28;20244;-74
2022/08/03 16:03:27;;;;;;;2.22;1.30;;;;;;;34.35;19.49;97752.09;8412163;28;20233;-74
2022/08/03 16:07:46;;;;;;;2.80;1.30;;;;;;;34.19;19.12;97753.53;8390000;28;20234;-74
2022/08/03 16:12:06;;;;;;;1.95;1.30;;;;;;;34.27;19.64;97740.63;8400258;28;20284;-74
2022/08/03 16:16:18;;;;;;;3.55;1.10;;;;;;;34.33;19.30;97746.97;8400826;28;20241;-74
2022/08/03 16:20:22;;;;;;;1.30;1.20;;;;;;;34.33;20.21;97741.59;8400673;28;20237;-73
2022/08/03 16:24:35;;;;;;;2.53;1.20;;;;;;;34.25;20.20;97731.97;8410875;28;20226;-74
2022/08/03 16:28:40;;;;;;;4.07;1.10;;;;;;;34.16;20.37;97735.19;8395011;28;20223;-73
2022/08/03 16:32:44;;;;;;;4.50;1.20;;;;;;;33.99;19.50;97734.94;8386682;28;20235;-74
2022/08/03 16:36:48;;;;;;;2.83;1.20;;;;;;;33.86;19.86;97727.84;8383696;28;20238;-72
2022/08/03 16:40:51;;;;;;;2.78;1.00;;;;;;;33.86;20.12;97728.66;8383847;28;20232;-73
2022/08/03 16:44:54;;;;;;;6.97;1.48;;;;;;;33.77;19.91;97729.19;8383991;28;20246;-73
2022/08/03 16:48:57;;;;;;;3.35;1.13;;;;;;;33.66;19.98;97730.72;8383920;28;20559;-73
2022/08/03 16:53:02;;;;;;;1.90;1.17;;;;;;;33.54;20.44;97724.44;8383536;28;20246;-73
2022/08/03 16:57:05;;;;;;;3.80;1.00;;;;;;;33.47;20.22;97719.13;8383521;28;20242;-73
2022/08/03 17:01:10;;;;;;;3.60;1.30;;;;;;;33.40;20.54;97721.88;8383405;28;20398;-74
2022/08/03 17:05:26;;;;;;;1.63;1.17;;;;;;;33.30;20.51;97726.91;8384064;28;20239;-79
2022/08/03 17:09:47;;;;;;;3.20;1.07;;;;;;;33.17;20.76;97727.00;8400938;28;20226;-73
2022/08/03 17:13:50;;;;;;;1.10;0.90;;;;;;;33.07;21.57;97733.69;8415482;28;20233;-72
2022/08/03 17:18:05;;;;;;;1.33;0.80;;;;;;;32.96;21.12;97731.69;8415323;28;20352;-73
2022/08/03 17:22:11;;;;;;;3.07;1.07;;;;;;;32.80;20.71;97735.72;8415320;28;20335;-74
2022/08/03 17:26:15;;;;;;;2.73;1.30;;;;;;;32.69;21.61;97736.41;8415370;28;20230;-76
2022/08/03 17:31:13;;;;;;;1.93;1.00;;;;;;;32.58;21.32;97735.25;8415447;28;20233;-76
2022/08/03 17:34:48;;;;;;;1.13;1.03;;;;;;;32.52;21.45;97734.22;8422821;28;20577;-76
2022/08/03 17:38:53;;;;;;;1.90;1.10;;;;;;;32.44;21.58;97742.47;8415357;28;20521;-74
2022/08/03 17:42:58;;;;;;;0.90;0.80;;;;;;;32.40;21.38;97737.78;8415061;28;20240;-75
2022/08/03 17:47:01;;;;;;;1.60;1.10;;;;;;;32.34;21.74;97736.75;8414934;28;20241;-75
2022/08/03 17:51:07;;;;;;;1.43;1.10;;;;;;;32.29;22.59;97744.59;8414484;28;20239;-75
2022/08/03 17:55:18;;;;;;;1.83;1.20;;;;;;;32.22;22.58;97746.53;8414626;28;20288;-75
2022/08/03 17:59:56;;;;;;;2.07;1.10;;;;;;;32.16;22.64;97742.81;8414671;28;20233;-75
2022/08/03 18:04:03;;;;;;;2.57;1.20;;;;;;;32.06;22.43;97754.00;8414201;28;20457;-75
2022/08/03 18:08:17;;;;;;;3.37;1.40;;;;;;;31.91;23.35;97750.69;8414516;28;20234;-75
2022/08/03 18:12:27;;;;;;;5.00;1.67;;;;;;;31.83;23.69;97748.22;8414128;28;20415;-75
2022/08/03 18:16:34;;;;;;;2.07;1.40;;;;;;;31.79;23.73;97753.19;8414376;28;20244;-75
2022/08/03 18:20:40;;;;;;;3.07;1.60;;;;;;;31.68;23.99;97751.16;8414142;28;20224;-75
2022/08/03 18:24:49;;;;;;;3.87;1.67;;;;;;;31.64;23.87;97752.59;8414257;28;20223;-75
2022/08/03 18:28:53;;;;;;;3.07;1.40;;;;;;;31.51;24.24;97745.41;8413465;28;20241;-74
2022/08/03 18:32:58;;;;;;;1.53;1.40;;;;;;;31.50;23.96;97754.47;8413397;28;20325;-77
2022/08/03 18:37:03;;;;;;;2.10;1.50;;;;;;;31.37;24.39;97757.94;8413145;28;20240;-75
2022/08/03 18:41:11;;;;;;;5.37;1.93;;;;;;;31.26;24.97;97761.22;8413648;28;20301;-72
2022/08/03 18:45:21;;;;;;;2.23;1.90;;;;;;;31.14;25.18;97756.50;8413479;28;20255;-76
2022/08/03 18:49:53;;;;;;;3.63;1.70;;;;;;;31.07;25.58;97757.50;8413192;28;20337;-75
2022/08/03 18:54:03;;;;;;;3.00;1.60;;;;;;;30.99;25.49;97771.91;8412629;28;20430;-75
2022/08/03 18:58:14;;;;;;;3.60;1.73;;;;;;;30.86;25.84;97766.50;8412862;28;20337;-76
2022/08/03 19:02:27;;;;;;;1.80;1.70;;;;;;;30.82;25.53;97768.75;8413080;28;20227;-76
2022/08/03 19:06:33;;;;;;;5.47;1.80;;;;;;;30.73;25.65;97772.63;8413105;28;20230;-76
2022/08/03 19:10:38;;;;;;;1.90;1.70;;;;;;;30.63;25.93;97777.53;8413035;28;20236;-76
2022/08/03 19:14:44;;;;;;;3.13;1.90;;;;;;;30.57;26.07;97776.50;8413232;28;20225;-76
2022/08/03 19:18:48;;;;;;;2.20;1.90;;;;;;;30.52;26.20;97782.47;8446057;28;20409;-74
2022/08/03 19:22:54;;;;;;;2.83;1.97;;;;;;;30.37;27.74;97789.78;8446195;28;20226;-76
2022/08/03 19:26:58;;;;;;;3.17;2.10;;;;;;;30.28;28.42;97788.28;8446501;28;20234;-75
2022/08/03 19:31:03;;;;;;;3.67;1.80;;;;;;;30.19;28.54;97784.94;8445797;28;20238;-75